createdAt,value
2023-03-13T00:00:34.513Z,8.22
2023-03-13T00:03:07.401Z,8.20
2023-03-13T00:05:39.434Z,8.18
2023-03-13T00:08:11.546Z,8.30
2023-03-13T00:10:43.485Z,8.26
2023-03-13T00:13:15.586Z,8.30
2023-03-13T00:15:47.721Z,8.28
2023-03-13T00:18:19.828Z,8.36
2023-03-13T00:21:02.703Z,8.41
2023-03-13T00:23:37.678Z,8.40
2023-03-13T00:26:13.617Z,8.38
2023-03-13T00:28:46.856Z,8.43
2023-03-13T00:31:29.755Z,8.39
2023-03-13T00:34:03.893Z,8.41
2023-03-13T00:36:36.843Z,8.44
2023-03-13T00:39:09.708Z,8.39
2023-03-13T00:41:41.748Z,8.34
2023-03-13T00:44:14.402Z,8.35
2023-03-13T00:46:46.418Z,8.41
2023-03-13T00:49:18.537Z,8.44
2023-03-13T00:51:51.087Z,8.40
2023-03-13T00:54:23.201Z,8.43
2023-03-13T00:56:55.215Z,8.39
2023-03-13T00:59:27.236Z,8.41
2023-03-13T01:01:59.224Z,8.45
2023-03-13T01:04:31.237Z,8.42
2023-03-13T01:07:35.515Z,8.39
2023-03-13T01:10:11.329Z,8.36
2023-03-13T01:12:43.303Z,8.38
2023-03-13T01:15:15.596Z,8.35
2023-03-13T01:21:30.040Z,8.30
2023-03-13T01:24:02.801Z,8.30
2023-03-13T01:26:34.891Z,8.30
2023-03-13T01:29:06.952Z,8.32
2023-03-13T01:31:39.102Z,8.23
2023-03-13T01:34:11.642Z,8.16
2023-03-13T01:36:44.161Z,8.17
2023-03-13T01:39:16.768Z,8.16
2023-03-13T01:41:48.820Z,8.11
2023-03-13T01:44:26.872Z,8.13
2023-03-13T01:47:36.012Z,8.12
2023-03-13T01:50:08.408Z,8.09
2023-03-13T01:52:40.509Z,8.08
2023-03-13T01:55:19.197Z,8.02
2023-03-13T01:57:53.851Z,8.07
2023-03-13T02:00:38.976Z,8.09
2023-03-13T02:03:19.862Z,8.06
2023-03-13T02:05:52.345Z,8.05
2023-03-13T02:08:33.538Z,8.06
2023-03-13T02:15:17.776Z,8.05
2023-03-13T02:17:58.759Z,8.10
2023-03-13T02:20:31.235Z,8.20
2023-03-13T02:23:29.407Z,8.20
2023-03-13T02:26:01.931Z,8.22
2023-03-13T02:28:39.427Z,8.21
2023-03-13T02:31:12.538Z,8.15
2023-03-13T02:33:45.065Z,8.08
2023-03-13T02:36:18.035Z,8.05
2023-03-13T02:38:59.911Z,8.05
2023-03-13T02:41:33.621Z,8.09
2023-03-13T02:44:06.959Z,8.02
2023-03-13T02:50:11.398Z,8.08
2023-03-13T02:52:56.997Z,8.06
2023-03-13T02:55:36.227Z,8.01
2023-03-13T02:58:31.765Z,8.01
2023-03-13T03:01:23.587Z,8.09
2023-03-13T03:03:55.645Z,8.13
2023-03-13T03:06:27.754Z,8.07
2023-03-13T03:09:04.143Z,8.11
2023-03-13T03:11:36.206Z,8.03
2023-03-13T03:14:10.046Z,8.12
2023-03-13T03:16:45.876Z,8.11
2023-03-13T03:19:18.076Z,8.05
2023-03-13T03:21:50.127Z,8.05
2023-03-13T03:24:22.300Z,8.13
2023-03-13T03:26:54.355Z,8.11
2023-03-13T03:29:35.750Z,8.10
2023-03-13T03:32:07.821Z,8.08
2023-03-13T03:34:40.019Z,8.08
2023-03-13T03:37:12.083Z,8.17
2023-03-13T03:39:44.615Z,8.15
2023-03-13T03:42:17.803Z,8.14
2023-03-13T03:44:49.789Z,8.10
2023-03-13T03:47:22.014Z,8.11
2023-03-13T03:49:54.181Z,8.05
2023-03-13T03:52:26.661Z,8.11
2023-03-13T03:54:58.720Z,8.18
2023-03-13T03:58:35.231Z,8.18
2023-03-13T04:01:07.360Z,8.15
2023-03-13T04:03:39.448Z,8.16
2023-03-13T04:06:11.533Z,8.21
2023-03-13T04:08:46.748Z,8.28
2023-03-13T04:11:19.258Z,8.24
2023-03-13T04:13:52.158Z,8.24
2023-03-13T04:16:24.248Z,8.21
2023-03-13T04:18:56.359Z,8.23
2023-03-13T04:21:28.417Z,8.30
2023-03-13T04:24:00.473Z,8.21
2023-03-13T04:26:32.440Z,8.24
2023-03-13T04:29:06.387Z,8.37
2023-03-13T04:31:38.401Z,8.38
2023-03-13T04:34:10.473Z,8.38
2023-03-13T04:39:34.100Z,8.33
2023-03-13T04:42:11.103Z,8.37
2023-03-13T04:44:43.918Z,8.36
2023-03-13T04:47:16.132Z,8.37
2023-03-13T04:49:48.312Z,8.34
2023-03-13T04:52:21.301Z,8.41
2023-03-13T04:54:53.361Z,8.46
2023-03-13T04:57:25.497Z,8.55
2023-03-13T04:59:57.719Z,8.60
2023-03-13T05:02:38.421Z,8.54
2023-03-13T05:05:17.887Z,8.57
2023-03-13T05:07:58.701Z,8.67
2023-03-13T05:10:34.246Z,8.72
2023-03-13T05:13:06.375Z,8.66
2023-03-13T05:15:38.389Z,8.70
2023-03-13T05:18:10.674Z,8.75
2023-03-13T05:20:42.686Z,8.79
2023-03-13T05:23:15.347Z,8.90
2023-03-13T05:25:47.425Z,8.85
2023-03-13T05:28:19.522Z,8.92
2023-03-13T05:30:51.786Z,8.90
2023-03-13T05:33:24.004Z,8.98
2023-03-13T05:35:56.560Z,9.01
2023-03-13T05:38:28.739Z,9.09
2023-03-13T05:41:01.032Z,9.05
2023-03-13T05:43:33.054Z,9.13
2023-03-13T05:46:05.352Z,9.15
2023-03-13T05:48:37.493Z,9.12
2023-03-13T05:51:09.658Z,9.12
2023-03-13T05:53:41.836Z,9.14
2023-03-13T05:56:14.862Z,9.18
2023-03-13T05:58:46.965Z,9.32
2023-03-13T06:01:19.127Z,9.33
2023-03-13T06:03:51.830Z,9.41
2023-03-13T06:06:24.001Z,9.50
2023-03-13T06:09:02.097Z,9.43
2023-03-13T06:11:34.254Z,9.57
2023-03-13T06:14:06.429Z,9.56
2023-03-13T06:16:38.576Z,9.60
2023-03-13T06:19:10.751Z,9.70
2023-03-13T06:21:42.967Z,9.65
2023-03-13T06:24:37.028Z,9.73
2023-03-13T06:27:09.124Z,9.69
2023-03-13T06:29:41.293Z,9.72
2023-03-13T06:32:13.602Z,9.77
2023-03-13T06:34:45.853Z,9.95
2023-03-13T06:37:18.659Z,9.91
2023-03-13T06:39:50.951Z,9.94
2023-03-13T06:42:23.101Z,9.90
2023-03-13T06:44:57.339Z,9.98
2023-03-13T06:47:32.578Z,10.03
2023-03-13T06:50:05.302Z,10.02
2023-03-13T06:52:43.882Z,10.12
2023-03-13T06:55:17.613Z,10.09
2023-03-13T06:57:56.344Z,10.19
2023-03-13T07:00:28.932Z,10.24
2023-03-13T07:03:01.666Z,10.36
2023-03-13T07:05:34.272Z,10.36
2023-03-13T07:08:06.879Z,10.40
2023-03-13T07:10:39.008Z,10.41
2023-03-13T07:13:11.280Z,10.55
2023-03-13T07:15:43.505Z,10.58
2023-03-13T07:18:16.090Z,10.55
2023-03-13T07:20:56.362Z,10.58
2023-03-13T07:23:29.744Z,10.69
2023-03-13T07:26:05.967Z,10.75
2023-03-13T07:28:38.393Z,10.80
2023-03-13T07:31:19.533Z,10.84
2023-03-13T07:33:56.780Z,10.91
2023-03-13T07:36:31.197Z,11.01
2023-03-13T07:39:03.323Z,11.02
2023-03-13T07:41:35.681Z,11.09
2023-03-13T07:44:10.624Z,11.04
2023-03-13T07:46:42.925Z,11.07
2023-03-13T07:49:17.123Z,11.14
2023-03-13T07:51:51.408Z,11.26
2023-03-13T07:54:26.790Z,11.39
2023-03-13T07:57:03.327Z,11.33
2023-03-13T07:59:35.820Z,11.36
2023-03-13T08:02:13.992Z,11.38
2023-03-13T08:04:46.311Z,11.47
2023-03-13T08:07:19.184Z,11.46
2023-03-13T08:09:51.785Z,11.49
2023-03-13T08:12:23.889Z,11.57
2023-03-13T08:14:55.964Z,11.60
2023-03-13T08:17:31.042Z,11.67
2023-03-13T08:20:03.553Z,11.74
2023-03-13T08:22:37.279Z,11.64
2023-03-13T08:25:09.861Z,11.69
2023-03-13T08:27:41.952Z,11.65
2023-03-13T08:30:14.890Z,11.66
2023-03-13T08:32:47.130Z,11.66
2023-03-13T08:35:19.286Z,11.72
2023-03-13T08:38:02.147Z,11.74
2023-03-13T08:40:34.328Z,11.78
2023-03-13T08:43:06.999Z,11.75
2023-03-13T08:45:39.108Z,11.70
2023-03-13T08:48:11.147Z,11.70
2023-03-13T08:50:43.281Z,11.79
2023-03-13T08:53:18.908Z,11.82
2023-03-13T08:55:55.029Z,11.80
2023-03-13T08:58:27.657Z,11.81
2023-03-13T09:01:05.527Z,11.89
2023-03-13T09:03:38.681Z,11.90
2023-03-13T09:06:12.555Z,11.97
2023-03-13T09:08:46.189Z,12.02
2023-03-13T09:11:22.801Z,12.03
2023-03-13T09:13:56.621Z,12.03
2023-03-13T09:16:32.682Z,12.01
2023-03-13T09:19:05.426Z,12.09
2023-03-13T09:21:37.607Z,12.18
2023-03-13T09:24:09.729Z,12.19
2023-03-13T09:26:58.537Z,12.13
2023-03-13T09:29:34.782Z,12.19
2023-03-13T09:32:08.029Z,12.18
2023-03-13T09:34:40.490Z,12.16
2023-03-13T09:37:17.908Z,11.99
2023-03-13T09:39:50.223Z,12.08
2023-03-13T09:42:35.776Z,12.14
2023-03-13T09:45:18.184Z,12.26
2023-03-13T09:48:09.134Z,12.27
2023-03-13T09:51:02.047Z,12.38
2023-03-13T09:53:50.163Z,12.41
2023-03-13T09:56:29.781Z,12.64
2023-03-13T09:59:31.849Z,12.80
2023-03-13T10:02:18.168Z,12.99
2023-03-13T10:05:10.567Z,13.19
2023-03-13T10:07:43.347Z,13.53
2023-03-13T10:10:29.480Z,13.47
2023-03-13T10:13:15.889Z,13.49
2023-03-13T10:15:56.859Z,13.81
2023-03-13T10:18:29.003Z,14.05
2023-03-13T10:21:14.393Z,14.16
2023-03-13T10:23:53.953Z,14.10
2023-03-13T10:26:38.108Z,13.89
2023-03-13T10:29:30.766Z,14.03
2023-03-13T10:32:09.094Z,14.02
2023-03-13T10:35:03.497Z,14.07
2023-03-13T10:37:43.983Z,14.10
2023-03-13T10:40:27.368Z,14.11
2023-03-13T10:43:07.627Z,14.03
2023-03-13T10:45:39.669Z,13.95
2023-03-13T10:48:20.871Z,13.68
2023-03-13T10:51:02.242Z,13.54
2023-03-13T10:53:42.262Z,13.48
2023-03-13T10:56:30.835Z,13.68
2023-03-13T10:59:02.877Z,13.79
2023-03-13T11:01:42.615Z,14.74
2023-03-13T11:04:33.322Z,15.15
2023-03-13T11:07:17.034Z,15.42
2023-03-13T11:10:17.451Z,15.36
2023-03-13T11:12:52.641Z,15.27
2023-03-13T11:15:50.090Z,14.87
2023-03-13T11:18:34.758Z,14.87
2023-03-13T11:21:17.586Z,14.87
2023-03-13T11:24:07.614Z,14.98
2023-03-13T11:27:04.818Z,15.02
2023-03-13T11:30:17.537Z,15.38
2023-03-13T11:33:41.068Z,15.71
2023-03-13T11:36:25.788Z,15.99
2023-03-13T11:40:01.192Z,15.97
2023-03-13T11:43:25.562Z,16.02
2023-03-13T11:46:17.263Z,15.78
2023-03-13T11:49:31.999Z,16.30
2023-03-13T11:52:38.227Z,16.11
2023-03-13T11:55:29.880Z,16.47
2023-03-13T11:58:07.688Z,16.68
2023-03-13T12:00:53.860Z,17.16
2023-03-13T12:03:50.840Z,16.79
2023-03-13T12:06:59.506Z,16.96
2023-03-13T12:10:05.584Z,16.92
2023-03-13T12:13:04.680Z,16.86
2023-03-13T12:15:42.456Z,16.90
2023-03-13T12:18:32.088Z,16.75
2023-03-13T12:21:42.975Z,16.70
2023-03-13T12:24:28.681Z,16.76
2023-03-13T12:27:13.929Z,16.84
2023-03-13T12:30:19.427Z,16.59
2023-03-13T12:33:40.610Z,16.43
2023-03-13T12:36:38.287Z,16.82
2023-03-13T12:39:37.718Z,16.91
2023-03-13T12:42:51.904Z,17.07
2023-03-13T12:45:39.620Z,17.23
2023-03-13T12:49:06.507Z,17.08
2023-03-13T12:52:24.183Z,17.14
2023-03-13T12:55:38.819Z,17.23
2023-03-13T12:58:30.414Z,17.56
2023-03-13T13:01:06.088Z,17.42
2023-03-13T13:04:11.984Z,17.49
2023-03-13T13:07:04.370Z,17.10
2023-03-13T13:09:40.253Z,17.01
2023-03-13T13:12:27.047Z,17.00
2023-03-13T13:15:06.767Z,17.34
2023-03-13T13:17:55.865Z,17.46
2023-03-13T13:20:39.396Z,17.63
2023-03-13T13:23:46.737Z,17.39
2023-03-13T13:26:39.148Z,17.31
2023-03-13T13:29:15.917Z,17.47
2023-03-13T13:31:48.879Z,17.10
2023-03-13T13:34:34.550Z,16.91
2023-03-13T13:37:13.010Z,17.20
2023-03-13T13:42:57.707Z,17.17
2023-03-13T13:45:36.957Z,17.21
2023-03-13T13:48:29.739Z,17.30
2023-03-13T13:51:11.527Z,17.34
2023-03-13T13:54:01.060Z,17.23
2023-03-13T13:56:38.766Z,17.24
2023-03-13T13:59:30.000Z,17.21
2023-03-13T14:02:10.206Z,17.10
2023-03-13T14:05:02.007Z,17.11
2023-03-13T14:07:40.138Z,17.35
2023-03-13T14:10:32.758Z,17.39
2023-03-13T14:13:20.554Z,17.53
2023-03-13T14:15:54.196Z,17.51
2023-03-13T14:18:29.593Z,17.32
2023-03-13T14:21:05.267Z,17.21
2023-03-13T14:23:44.410Z,17.08
2023-03-13T14:26:27.731Z,17.16
2023-03-13T14:29:05.997Z,17.39
2023-03-13T14:31:40.040Z,17.53
2023-03-13T14:34:13.701Z,17.63
2023-03-13T14:37:11.165Z,17.52
2023-03-13T14:39:50.325Z,17.57
2023-03-13T14:42:23.472Z,17.65
2023-03-13T14:44:58.074Z,17.82
2023-03-13T14:47:31.738Z,17.62
2023-03-13T14:50:11.205Z,17.68
2023-03-13T14:52:54.393Z,17.52
2023-03-13T14:55:32.826Z,17.44
2023-03-13T14:58:27.102Z,17.43
2023-03-13T15:00:59.385Z,17.55
2023-03-13T15:03:33.946Z,17.58
2023-03-13T15:06:14.390Z,17.67
2023-03-13T15:09:08.992Z,17.60
2023-03-13T15:11:59.947Z,17.66
2023-03-13T15:14:38.178Z,17.47
2023-03-13T15:17:26.200Z,17.52
2023-03-13T15:19:59.848Z,17.30
2023-03-13T15:22:44.481Z,17.40
2023-03-13T15:25:23.886Z,17.47
2023-03-13T15:27:56.110Z,17.32
2023-03-13T15:30:28.158Z,17.22
2023-03-13T15:33:03.938Z,17.28
2023-03-13T15:35:36.751Z,17.27
2023-03-13T15:38:21.205Z,17.23
2023-03-13T15:40:53.760Z,17.29
2023-03-13T15:43:26.375Z,17.21
2023-03-13T15:46:01.249Z,16.99
2023-03-13T15:48:38.285Z,17.19
2023-03-13T15:51:16.013Z,17.21
2023-03-13T15:53:48.508Z,17.22
2023-03-13T15:56:25.539Z,17.08
2023-03-13T15:58:58.668Z,17.05
2023-03-13T16:01:34.266Z,16.96
2023-03-13T16:04:09.903Z,16.83
2023-03-13T16:06:42.064Z,16.82
2023-03-13T16:09:14.222Z,16.68
2023-03-13T16:11:46.395Z,16.68
2023-03-13T16:14:18.625Z,16.62
2023-03-13T16:16:52.991Z,16.69
2023-03-13T16:19:25.489Z,16.59
2023-03-13T16:21:57.823Z,16.56
2023-03-13T16:24:32.953Z,16.67
2023-03-13T16:27:17.817Z,16.63
2023-03-13T16:29:51.760Z,16.58
2023-03-13T16:32:28.268Z,16.65
2023-03-13T16:35:00.362Z,16.33
2023-03-13T16:37:32.674Z,16.36
2023-03-13T16:40:25.335Z,16.35
2023-03-13T16:42:57.832Z,16.28
2023-03-13T16:45:30.128Z,16.26
2023-03-13T16:48:08.313Z,16.27
2023-03-13T16:50:41.002Z,16.24
2023-03-13T16:53:13.283Z,16.23
2023-03-13T16:55:45.643Z,16.19
2023-03-13T16:58:18.184Z,16.03
2023-03-13T17:01:04.308Z,15.95
2023-03-13T17:03:37.289Z,15.86
2023-03-13T17:06:19.029Z,15.85
2023-03-13T17:08:51.728Z,15.77
2023-03-13T17:11:25.015Z,15.78
2023-03-13T17:14:00.509Z,15.68
2023-03-13T17:16:42.554Z,15.71
2023-03-13T17:19:17.121Z,15.62
2023-03-13T17:21:49.328Z,15.54
2023-03-13T17:24:21.415Z,15.50
2023-03-13T17:26:53.434Z,15.37
2023-03-13T17:29:26.794Z,15.29
2023-03-13T17:32:02.776Z,15.26
2023-03-13T17:34:35.644Z,15.20
2023-03-13T17:37:21.873Z,15.16
2023-03-13T17:39:54.004Z,15.05
2023-03-13T17:42:29.582Z,15.00
2023-03-13T17:45:01.606Z,15.01
2023-03-13T17:47:33.696Z,14.94
2023-03-13T17:50:27.454Z,14.91
2023-03-13T17:52:59.724Z,14.76
2023-03-13T17:55:31.901Z,14.71
2023-03-13T17:58:04.078Z,14.61
2023-03-13T18:00:36.243Z,14.58
2023-03-13T18:03:08.628Z,14.56
2023-03-13T18:05:43.534Z,14.58
2023-03-13T18:08:15.797Z,14.55
2023-03-13T18:10:47.963Z,14.54
2023-03-13T18:13:19.995Z,14.40
2023-03-13T18:15:52.138Z,14.35
2023-03-13T18:18:24.251Z,14.34
2023-03-13T18:20:56.457Z,14.36
2023-03-13T18:23:28.713Z,14.40
2023-03-13T18:26:01.401Z,14.32
2023-03-13T18:28:33.420Z,14.27
2023-03-13T18:31:06.267Z,14.17
2023-03-13T18:33:38.401Z,14.22
2023-03-13T18:36:20.774Z,14.23
2023-03-13T18:38:53.369Z,14.16
2023-03-13T18:41:25.705Z,14.14
2023-03-13T18:43:57.744Z,14.25
2023-03-13T18:46:33.468Z,14.25
2023-03-13T18:49:06.324Z,14.22
2023-03-13T18:51:40.040Z,14.34
2023-03-13T18:54:12.371Z,14.29
2023-03-13T18:56:47.406Z,14.28
2023-03-13T18:59:22.132Z,14.25
2023-03-13T19:01:57.236Z,14.23
2023-03-13T19:04:29.289Z,14.21
2023-03-13T19:07:01.377Z,14.20
2023-03-13T19:09:48.727Z,14.16
2023-03-13T19:12:20.822Z,14.11
2023-03-13T19:14:55.723Z,14.09
2023-03-13T19:17:32.674Z,14.06
2023-03-13T19:20:05.566Z,13.95
2023-03-13T19:22:40.562Z,13.98
2023-03-13T19:25:16.608Z,13.95
2023-03-13T19:27:52.057Z,13.88
2023-03-13T19:30:26.230Z,13.85
2023-03-13T19:33:01.255Z,13.76
2023-03-13T19:35:39.823Z,13.65
2023-03-13T19:38:12.750Z,13.52
2023-03-13T19:40:44.893Z,13.45
2023-03-13T19:43:23.005Z,13.38
2023-03-13T19:45:55.453Z,13.36
2023-03-13T19:48:27.797Z,13.26
2023-03-13T19:51:00.285Z,13.27
2023-03-13T19:53:32.333Z,13.25
2023-03-13T19:56:24.932Z,13.17
2023-03-13T19:59:04.690Z,13.10
2023-03-13T20:01:37.107Z,13.06
2023-03-13T20:04:10.199Z,13.03
2023-03-13T20:06:46.832Z,12.99
2023-03-13T20:09:21.075Z,12.90
2023-03-13T20:11:53.455Z,12.86
2023-03-13T20:14:25.931Z,12.79
2023-03-13T20:16:59.274Z,12.74
2023-03-13T20:19:31.773Z,12.73
2023-03-13T20:22:05.352Z,12.66
2023-03-13T20:24:38.852Z,12.60
2023-03-13T20:27:11.916Z,12.60
2023-03-13T20:29:44.434Z,12.55
2023-03-13T20:32:16.985Z,12.46
2023-03-13T20:34:49.124Z,12.49
2023-03-13T20:37:34.946Z,12.50
2023-03-13T20:40:10.886Z,12.54
2023-03-13T20:42:43.069Z,12.51
2023-03-13T20:45:21.032Z,12.47
2023-03-13T20:47:56.103Z,12.45
2023-03-13T20:50:28.404Z,12.44
2023-03-13T20:53:00.578Z,12.40
2023-03-13T20:55:38.712Z,12.29
2023-03-13T20:58:10.946Z,12.27
2023-03-13T21:00:43.627Z,12.21
2023-03-13T21:03:17.535Z,12.22
2023-03-13T21:05:49.748Z,12.16
2023-03-13T21:08:23.097Z,12.15
2023-03-13T21:10:58.164Z,12.11
2023-03-13T21:13:30.524Z,12.11
2023-03-13T21:16:05.788Z,12.05
2023-03-13T21:18:38.130Z,12.06
2023-03-13T21:21:15.301Z,12.02
2023-03-13T21:23:47.742Z,12.01
2023-03-13T21:26:20.369Z,12.07
2023-03-13T21:28:54.574Z,11.99
2023-03-13T21:31:26.938Z,12.04
2023-03-13T21:34:00.802Z,12.14
2023-03-13T21:36:32.993Z,12.21
2023-03-13T21:39:08.029Z,12.24
2023-03-13T21:41:40.730Z,12.28
2023-03-13T21:44:12.970Z,12.30
2023-03-13T21:46:47.266Z,12.23
2023-03-13T21:49:20.602Z,12.19
2023-03-13T21:51:52.626Z,12.15
2023-03-13T21:54:27.627Z,12.01
2023-03-13T21:56:59.708Z,12.00
2023-03-13T21:59:32.154Z,12.01
2023-03-13T22:02:04.221Z,12.04
2023-03-13T22:04:36.511Z,12.10
2023-03-13T22:07:09.761Z,12.13
2023-03-13T22:09:41.857Z,12.20
2023-03-13T22:12:16.724Z,12.23
2023-03-13T22:14:49.905Z,12.27
2023-03-13T22:17:23.553Z,12.28
2023-03-13T22:19:56.096Z,12.26
2023-03-13T22:22:28.683Z,12.24
2023-03-13T22:25:04.228Z,11.95
2023-03-13T22:27:42.256Z,11.48
2023-03-13T22:33:09.006Z,11.21
2023-03-13T22:35:44.271Z,11.05
2023-03-13T22:38:19.898Z,10.96
2023-03-13T22:41:05.097Z,10.88
2023-03-13T22:43:37.466Z,10.89
2023-03-13T22:46:14.197Z,10.86
2023-03-13T22:48:46.266Z,10.92
2023-03-13T22:51:18.442Z,10.88
2023-03-13T22:53:50.979Z,10.93
2023-03-13T22:56:25.163Z,10.93
2023-03-13T22:58:58.663Z,10.95
2023-03-13T23:01:33.428Z,10.95
2023-03-13T23:04:08.268Z,10.95
2023-03-13T23:06:40.575Z,10.99
2023-03-13T23:09:12.606Z,10.95
2023-03-13T23:11:44.744Z,10.94
2023-03-13T23:14:19.643Z,10.94
2023-03-13T23:16:51.941Z,10.95
2023-03-13T23:19:24.163Z,10.92
2023-03-13T23:21:56.396Z,10.87
2023-03-13T23:24:28.766Z,10.86
2023-03-13T23:27:00.870Z,10.82
2023-03-13T23:29:33.148Z,10.77
2023-03-13T23:32:07.539Z,10.70
2023-03-13T23:34:39.689Z,10.71
2023-03-13T23:37:12.065Z,10.72
2023-03-13T23:39:44.329Z,10.72
2023-03-13T23:42:19.218Z,10.76
2023-03-13T23:44:54.883Z,10.74
2023-03-13T23:47:28.598Z,10.82
2023-03-13T23:50:04.073Z,10.78
2023-03-13T23:52:36.843Z,10.81
2023-03-13T23:55:12.902Z,10.80
2023-03-13T23:57:49.439Z,10.86
